Impacts TAF Board
For situational awareness. Not to be used for flight planning purposes.
IDs:

PABE - Bethel Arpt, AK, US

Issued at 1743 UTC 21 May 2022
Updated at 2316 UTC 21 May 2022
Potential Impact None Slight Moderate High
Time<<23/00Z 23/01Z 23/02Z 23/03Z 23/04Z 23/05Z 23/06Z 23/07Z 23/08Z 23/09Z 23/10Z 23/11Z 23/12Z
Type
VIS
CIG
Cover
FltCat
WX
WDir
WSpd
WGst
WSHgt
WSDir
WSSpd
Raw TAF
PABE 211743Z 2118/2218 09010KT P6SM OVC050
  FM212100 07017G27KT P6SM SCT070 BKN120
  FM220800 08010KT P6SM SCT120 BKN200


METAR Board
Radar Display
Forecast Discussion
For situational awareness. Not to be used for flight planning purposes.